Latest Coastal Weather Observations for Lihou Reef Lighthouse

IDQ60701

Issued at 10:42 am EST Monday 27 March 2017 (issued every 10 minutes, with the page automatically refreshed every 10 minutes)

About coastal observations | Map of coastal stations | Coastal observations for QLD | Marine services | Other Formats
Station Details ID: 200880 Name: LIHOU REEF LIGHTHOUSE Lat: -17.13 Lon: 152.15 Height: 0.0 m
Data from the previous 72 hours. | See also: Recent months at Lihou Reef Lighthouse
Date/Time
EST
Temp
°C
Wind Pressure Rain since
9am
mm
Weather Cloud Vis
km
Sea
Height
m
Swell
Dir  Spd
kts
Gust
kts
hPa Trend Height
m
Period
s
Dir
27/10:30am 27.5 N 24 30 1005.3 - - - - - - - - -
27/10:00am 27.5 N 25 30 1005.2 - - - - - - - - -
27/09:30am 27.7 NNW 25 31 1004.8 - - - - - - - - -
27/09:00am 27.3 N 25 30 1005.0 - - - - - - - - -
27/08:30am 27.1 N 25 32 1004.9 - - - - - - - - -
27/08:00am 26.3 NNW 25 31 1004.6 - - - - - - - - -
27/07:30am 25.2 NNW 27 33 1004.0 - - - - - - - - -
27/07:00am 25.0 NNW 32 44 1004.0 - - - - - - - - -
27/06:37am 25.8 NNW 29 43 1003.4 - - - - - - - - -
27/06:36am 26.0 NNW 28 36 1003.5 - - - - - - - - -
27/06:30am 27.1 N 30 35 1002.7 - - - - - - - - -
27/06:00am 27.4 NNW 23 30 1002.2 - - - - - - - - -
27/05:30am 27.1 NNW 24 29 1001.8 - - - - - - - - -
27/05:00am 26.9 NNW 27 32 1002.2 - - - - - - - - -
27/04:45am 27.2 NNW 26 38 1001.9 - - - - - - - - -
27/04:30am 26.8 NNW 25 32 1001.8 - - - - - - - - -
27/04:15am 25.9 N 26 37 1001.5 - - - - - - - - -
27/04:00am 27.2 N 26 33 1001.4 - - - - - - - - -
27/03:30am 27.5 N 28 35 1001.5 - - - - - - - - -
27/03:00am 27.3 NNW 27 33 1001.2 - - - - - - - - -
27/02:30am 27.2 NNW 29 36 1001.3 - - - - - - - - -
27/02:00am 27.1 NNW 28 38 1001.5 - - - - - - - - -
27/01:30am 26.9 NNW 29 36 1001.6 - - - - - - - - -
27/01:00am 27.1 NNW 26 32 1001.6 - - - - - - - - -
27/12:30am 26.9 NNW 30 38 1001.9 - - - - - - - - -
27/12:00am 27.1 NNW 29 36 1002.6 - - - - - - - - -
 
Date/Time
EST
Temp
°C
Wind Pressure Rain since
9am
mm
Weather Cloud Vis
km
Sea
Height
m
Swell
Dir  Spd
kts
Gust
kts
hPa Trend Height
m
Period
s
Dir
26/11:53pm 27.0 NNW 29 39 1002.7 - - - - - - - - -
26/11:30pm 26.5 NNW 32 38 1002.7 - - - - - - - - -
26/11:00pm 26.8 NNW 29 36 1002.1 - - - - - - - - -
26/10:33pm 25.8 NNW 32 42 1002.9 - - - - - - - - -
26/10:30pm 25.7 NNW 34 42 1002.8 - - - - - - - - -
26/10:19pm 26.4 NNW 30 40 1002.6 - - - - - - - - -
26/10:00pm 25.8 NNW 31 38 1002.8 - - - - - - - - -
26/09:47pm 26.3 NNW 30 42 1002.4 - - - - - - - - -
26/09:30pm 27.7 N 29 36 1002.0 - - - - - - - - -
26/09:00pm 27.7 N 30 36 1001.7 - - - - - - - - -
26/08:30pm 27.2 N 27 33 1001.5 - - - - - - - - -
26/08:00pm 25.8 NNW 32 46 1001.0 - - - - - - - - -
26/07:36pm 24.9 NNW 34 44 1001.1 - - - - - - - - -
26/07:30pm 27.5 NNW 32 38 1000.6 - - - - - - - - -
26/07:03pm 27.0 NNW 32 42 1000.0 - - - - - - - - -
26/07:00pm 26.8 NNW 33 43 1000.0 - - - - - - - - -
26/06:47pm 25.4 NNW 31 42 1000.1 - - - - - - - - -
26/06:30pm 27.3 NNW 31 39 999.4 - - - - - - - - -
26/06:03pm 26.7 NNW 30 41 998.9 - - - - - - - - -
26/06:00pm 26.5 NNW 29 37 998.9 - - - - - - - - -
26/05:35pm 25.4 NNW 32 42 999.3 - - - - - - - - -
26/05:30pm 24.9 NNW 31 38 999.2 - - - - - - - - -
26/05:00pm 24.9 NNW 36 52 998.7 - - - - - - - - -
26/04:43pm 24.4 NNW 35 49 998.7 - - - - - - - - -
26/04:30pm 27.0 NNW 34 42 997.5 - - - - - - - - -
26/04:00pm 26.0 NNW 33 45 997.8 - - - - - - - - -
26/03:30pm 25.9 NNW 36 48 997.4 - - - - - - - - -
26/03:17pm 26.4 NNW 35 45 997.2 - - - - - - - - -
26/03:00pm 26.5 NNW 34 42 997.3 - - - - - - - - -
26/02:30pm 26.5 NNW 35 41 997.3 - - - - - - - - -
26/02:07pm 26.4 NNW 34 44 997.6 - - - - - - - - -
26/02:00pm 26.1 NNW 35 42 997.6 - - - - - - - - -
26/01:30pm 25.9 NNW 35 45 997.7 - - - - - - - - -
26/01:00pm 25.7 NNW 37 47 997.9 - - - - - - - - -
26/12:33pm 26.0 NNW 38 49 997.8 - - - - - - - - -
26/12:30pm 26.1 NNW 37 45 997.8 - - - - - - - - -
26/12:01pm 26.1 NNW 34 45 998.6 - - - - - - - - -
26/12:00pm 26.2 NNW 35 45 998.6 - - - - - - - - -
26/11:44am 26.5 N 35 46 998.1 - - - - - - - - -
26/11:30am 26.7 N 37 44 998.4 - - - - - - - - -
26/11:00am 26.6 N 35 45 998.4 - - - - - - - - -
26/10:34am 26.5 NNW 36 47 998.7 - - - - - - - - -
26/10:30am 26.5 NNW 35 44 998.7 - - - - - - - - -
26/10:00am 26.7 NNW 39 47 998.9 - - - - - - - - -
26/09:30am 26.6 NNW 37 49 998.8 - - - - - - - - -
26/09:08am 27.1 NNW 39 51 999.0 - - - - - - - - -
26/09:00am 27.0 NNW 37 45 998.9 - - - - - - - - -
26/08:30am 26.8 NNW 40 51 998.3 - - - - - - - - -
26/08:00am 27.2 NNW 41 54 997.3 - - - - - - - - -
26/07:30am 27.4 NNW 41 54 996.9 - - - - - - - - -
26/07:10am 27.3 NNW 41 55 996.6 - - - - - - - - -
26/07:00am 27.1 NNW 41 51 996.4 - - - - - - - - -
26/06:32am 27.1 NNW 42 54 995.8 - - - - - - - - -
26/06:30am 26.8 NNW 42 50 995.7 - - - - - - - - -
26/06:00am 27.1 NNW 42 53 995.3 - - - - - - - - -
26/05:30am 26.2 NNW 41 54 994.8 - - - - - - - - -
26/05:00am 25.3 NNW 42 54 994.3 - - - - - - - - -
26/04:31am 25.4 NNW 42 52 993.7 - - - - - - - - -
26/04:30am 25.3 NNW 43 52 993.7 - - - - - - - - -
26/04:00am 25.1 NNW 43 54 993.5 - - - - - - - - -
26/03:30am 25.7 NNW 45 57 993.2 - - - - - - - - -
26/03:17am 25.4 NNW 42 58 993.2 - - - - - - - - -
26/03:16am 25.6 NNW 43 62 1015.9 - - - - - - - - -
26/03:00am 25.4 NNW 47 61 992.9 - - - - - - - - -
26/02:30am 26.6 NNW 48 61 992.8 - - - - - - - - -
26/02:00am 27.1 NNW 43 56 992.7 - - - - - - - - -
26/01:30am 27.0 NNW 44 57 992.9 - - - - - - - - -
26/01:08am 27.2 NNW 43 53 993.0 - - - - - - - - -
26/01:00am 26.8 NNW 42 51 993.2 - - - - - - - - -
26/12:43am 27.1 NNW 40 50 993.4 - - - - - - - - -
26/12:30am 27.2 NW 40 50 993.6 - - - - - - - - -
26/12:01am 26.6 NW 39 51 993.3 - - - - - - - - -
26/12:00am 26.5 NW 38 47 993.3 - - - - - - - - -
 
Date/Time
EST
Temp
°C
Wind Pressure Rain since
9am
mm
Weather Cloud Vis
km
Sea
Height
m
Swell
Dir  Spd
kts
Gust
kts
hPa Trend Height
m
Period
s
Dir
25/11:52pm 26.3 NW 37 47 993.4 - - - - - - - - -
25/11:30pm 27.0 NW 33 40 993.2 - - - - - - - - -
25/11:00pm 26.1 NW 35 46 992.6 - - - - - - - - -
25/10:30pm 26.6 NNW 43 54 991.6 - - - - - - - - -
25/10:00pm 26.7 NNW 46 57 991.7 - - - - - - - - -
25/09:30pm 26.5 NNW 39 51 993.0 - - - - - - - - -
25/09:00pm 26.7 NNW 36 47 993.6 - - - - - - - - -
25/08:59pm 26.8 NNW 36 47 993.6 - - - - - - - - -
25/08:30pm 27.0 NW 33 40 994.0 - - - - - - - - -
25/08:00pm 26.9 WNW 33 41 993.5 - - - - - - - - -
25/07:38pm 27.1 NW 33 43 992.5 - - - - - - - - -
25/07:30pm 27.3 NW 37 46 992.7 - - - - - - - - -
25/07:00pm 27.0 NW 34 45 992.9 - - - - - - - - -
25/06:59pm 27.2 NW 33 45 992.8 - - - - - - - - -
25/06:46pm 26.7 WNW 32 40 992.9 - - - - - - - - -
25/06:30pm 26.7 W 25 30 992.9 - - - - - - - - -
25/06:24pm 26.6 W 23 30 992.7 - - - - - - - - -
25/06:00pm 26.5 W 17 21 992.0 - - - - - - - - -
25/05:30pm 27.4 NNW 20 25 991.8 - - - - - - - - -
25/05:00pm 27.6 NW 28 33 992.6 - - - - - - - - -
25/04:30pm 26.9 WNW 32 36 992.4 - - - - - - - - -
25/04:00pm 27.0 WNW 26 34 992.6 - - - - - - - - -
25/03:30pm 27.1 WNW 29 35 992.4 - - - - - - - - -
25/03:00pm 26.4 W 27 32 991.9 - - - - - - - - -
25/02:30pm 27.0 W 20 29 991.3 - - - - - - - - -
25/02:06pm 27.2 W 18 28 991.0 - - - - - - - - -
25/02:00pm 27.4 W 20 31 990.9 - - - - - - - - -
25/01:55pm 27.2 W 26 37 990.8 - - - - - - - - -
25/01:30pm 26.9 W 32 43 989.9 - - - - - - - - -
25/01:25pm 26.8 W 30 43 989.7 - - - - - - - - -
25/01:24pm 26.8 W 30 43 989.6 - - - - - - - - -
25/01:15pm 26.9 W 21 41 989.2 - - - - - - - - -
25/01:07pm 27.3 WSW 15 26 989.1 - - - - - - - - -
25/01:00pm 27.2 WSW 14 17 988.9 - - - - - - - - -
25/12:30pm 27.8 NW 19 23 988.6 - - - - - - - - -
25/12:21pm 27.8 NW 15 20 989.1 - - - - - - - - -
25/12:00pm 27.4 NNW 24 30 990.5 - - - - - - - - -
25/11:30am 27.4 NW 24 30 991.4 - - - - - - - - -
25/11:04am 27.6 NNW 18 28 992.3 - - - - - - - - -
25/11:00am 27.6 NNW 19 25 992.4 - - - - - - - - -
25/10:30am 27.1 NNW 22 26 993.4 - - - - - - - - -
25/10:00am 27.5 NNW 20 25 994.2 - - - - - - - - -
25/09:30am 27.4 NNW 21 25 994.5 - - - - - - - - -
25/09:00am 27.0 NW 21 25 994.5 - - - - - - - - -
25/08:30am 27.0 WNW 21 27 994.0 - - - - - - - - -
25/08:00am 27.8 NW 22 27 993.7 - - - - - - - - -
25/07:30am 27.3 NW 22 26 993.4 - - - - - - - - -
25/07:00am 27.4 WNW 22 27 993.0 - - - - - - - - -
25/06:57am 27.4 W 20 27 992.9 - - - - - - - - -
25/06:30am 27.3 W 17 30 992.2 - - - - - - - - -
25/06:19am 27.4 W 20 26 992.1 - - - - - - - - -
25/06:00am 27.2 WSW 11 16 992.1 - - - - - - - - -
25/05:30am 27.6 WSW 8 10 992.0 - - - - - - - - -
25/05:00am 27.0 S 10 12 991.6 - - - - - - - - -
25/04:30am 27.2 SSE 14 18 991.4 - - - - - - - - -
25/04:17am 27.4 S 19 27 991.2 - - - - - - - - -
25/04:00am 27.2 SSE 13 16 991.7 - - - - - - - - -
25/03:30am 27.1 SE 18 23 992.5 - - - - - - - - -
25/03:00am 26.8 ESE 24 30 993.1 - - - - - - - - -
25/02:47am 27.0 E 21 26 993.6 - - - - - - - - -
25/02:30am 27.0 ENE 20 25 994.6 - - - - - - - - -
25/02:00am 26.4 ENE 18 25 995.6 - - - - - - - - -
25/01:30am 26.8 ENE 19 25 996.3 - - - - - - - - -
25/01:19am 26.6 E 18 23 996.4 - - - - - - - - -
25/01:00am 27.4 E 16 20 997.4 - - - - - - - - -
25/12:30am 27.4 ENE 16 22 998.2 - - - - - - - - -
25/12:00am 27.2 NE 15 20 998.6 - - - - - - - - -
 
Date/Time
EST
Temp
°C
Wind Pressure Rain since
9am
mm
Weather Cloud Vis
km
Sea
Height
m
Swell
Dir  Spd
kts
Gust
kts
hPa Trend Height
m
Period
s
Dir
24/11:30pm 27.5 ENE 17 20 999.3 - - - - - - - - -
24/11:00pm 27.6 NE 18 22 999.3 - - - - - - - - -
24/10:30pm 27.3 NE 15 19 999.8 - - - - - - - - -
24/10:00pm 26.8 NNE 18 21 999.7 - - - - - - - - -
24/09:30pm 26.7 NE 11 14 999.7 - - - - - - - - -
24/09:21pm 27.6 E 14 19 999.7 - - - - - - - - -
24/09:00pm 27.9 E 22 26 999.3 - - - - - - - - -
24/08:30pm 26.9 ESE 23 27 999.3 - - - - - - - - -
24/08:11pm 27.8 ESE 21 35 999.5 - - - - - - - - -
24/08:08pm 27.5 SE 21 27 999.6 - - - - - - - - -
24/08:00pm 27.4 SE 22 27 999.6 - - - - - - - - -
24/07:30pm 27.5 ESE 24 30 999.7 - - - - - - - - -
24/07:00pm 27.3 E 22 26 999.9 - - - - - - - - -
24/06:53pm 26.9 ENE 14 26 1000.2 - - - - - - - - -
24/06:30pm 26.9 ENE 12 18 1000.2 - - - - - - - - -
24/06:00pm 26.4 NE 16 19 999.8 - - - - - - - - -
24/05:34pm 25.4 N 15 26 999.6 - - - - - - - - -
24/05:30pm 25.1 NNE 17 26 999.6 - - - - - - - - -
24/05:24pm 26.3 E 14 25 998.8 - - - - - - - - -
24/05:00pm 26.3 NNE 10 13 999.1 - - - - - - - - -
24/04:30pm 26.7 NNE 14 21 998.2 - - - - - - - - -
24/04:14pm 26.5 NNE 19 34 996.8 - - - - - - - - -
24/04:11pm 26.1 NNE 15 29 996.6 - - - - - - - - -
24/04:00pm 26.1 SSE 21 35 996.9 - - - - - - - - -
24/03:59pm 26.2 SSE 24 46 996.7 - - - - - - - - -
24/03:57pm 25.9 S 25 46 997.1 - - - - - - - - -
24/03:53pm 26.4 SSW 25 46 997.3 - - - - - - - - -
24/03:50pm 25.7 SSW 26 46 996.9 - - - - - - - - -
24/03:46pm 25.1 S 28 37 998.2 - - - - - - - - -
24/03:45pm 25.1 S 29 37 998.3 - - - - - - - - -
24/03:30pm 26.2 SSE 25 32 998.7 - - - - - - - - -
24/03:00pm 26.2 SE 23 28 999.8 - - - - - - - - -
24/02:30pm 27.1 SE 19 22 1000.6 - - - - - - - - -
24/02:00pm 27.9 ESE 18 22 1001.2 - - - - - - - - -
24/01:30pm 27.3 ESE 14 17 1002.1 - - - - - - - - -
24/01:00pm 27.4 SE 15 17 1002.4 - - - - - - - - -
24/12:30pm 27.3 ESE 14 18 1003.3 - - - - - - - - -
24/12:00pm 26.7 ESE 12 16 1004.0 - - - - - - - - -
24/11:30am 27.2 SE 15 16 1004.5 - - - - - - - - -
24/11:00am 27.5 - - - 1005.3 - - - - - - - - -

Other Formats:

Comma delimited format used in spreadsheet applications
http://www.bom.gov.au/fwo/IDQ60701/IDQ60701.94293.axf

JavaScript Object Notation format (JSON) in row-major order
http://www.bom.gov.au/fwo/IDQ60701/IDQ60701.94293.json